sensor_id;sensor_type;location;lat;lon;timestamp;pressure;altitude;pressure_sealevel;temperature;humidity
6345;BME280;3205;42.666;23.264;2023-02-18T00:00:10;95136.28;;;3.68;100.00
6345;BME280;3205;42.666;23.264;2023-02-18T00:02:38;95136.59;;;3.57;100.00
6345;BME280;3205;42.666;23.264;2023-02-18T00:05:07;95125.00;;;3.73;100.00
6345;BME280;3205;42.666;23.264;2023-02-18T00:07:33;95133.47;;;3.60;100.00
6345;BME280;3205;42.666;23.264;2023-02-18T00:10:01;95124.03;;;3.64;100.00
6345;BME280;3205;42.666;23.264;2023-02-18T00:12:29;95119.50;;;3.79;100.00
6345;BME280;3205;42.666;23.264;2023-02-18T00:14:55;95127.44;;;3.65;100.00
6345;BME280;3205;42.666;23.264;2023-02-18T00:17:22;95114.84;;;3.66;100.00
6345;BME280;3205;42.666;23.264;2023-02-18T00:19:49;95105.84;;;3.82;100.00
6345;BME280;3205;42.666;23.264;2023-02-18T00:22:15;95111.41;;;3.76;100.00
6345;BME280;3205;42.666;23.264;2023-02-18T00:24:42;95104.94;;;3.64;100.00
6345;BME280;3205;42.666;23.264;2023-02-18T00:27:08;95106.34;;;3.51;100.00
6345;BME280;3205;42.666;23.264;2023-02-18T00:29:34;95100.13;;;3.42;100.00
6345;BME280;3205;42.666;23.264;2023-02-18T00:32:00;95088.16;;;3.31;100.00
6345;BME280;3205;42.666;23.264;2023-02-18T00:34:27;95093.59;;;3.40;100.00
6345;BME280;3205;42.666;23.264;2023-02-18T00:36:53;95089.56;;;3.57;100.00
6345;BME280;3205;42.666;23.264;2023-02-18T00:39:21;95083.66;;;3.42;100.00
6345;BME280;3205;42.666;23.264;2023-02-18T00:41:47;95081.22;;;3.55;100.00
6345;BME280;3205;42.666;23.264;2023-02-18T00:44:13;95084.13;;;3.49;100.00
6345;BME280;3205;42.666;23.264;2023-02-18T00:46:39;95101.91;;;3.47;100.00
6345;BME280;3205;42.666;23.264;2023-02-18T00:49:06;95092.78;;;3.44;100.00
6345;BME280;3205;42.666;23.264;2023-02-18T00:51:32;95077.94;;;3.35;100.00
6345;BME280;3205;42.666;23.264;2023-02-18T00:54:00;95082.97;;;3.26;100.00
6345;BME280;3205;42.666;23.264;2023-02-18T00:56:26;95078.16;;;3.48;100.00
6345;BME280;3205;42.666;23.264;2023-02-18T00:58:54;95068.09;;;3.65;100.00
6345;BME280;3205;42.666;23.264;2023-02-18T01:01:20;95088.47;;;3.63;100.00
6345;BME280;3205;42.666;23.264;2023-02-18T01:03:47;95093.25;;;3.51;100.00
6345;BME280;3205;42.666;23.264;2023-02-18T01:06:13;95086.50;;;3.45;100.00
6345;BME280;3205;42.666;23.264;2023-02-18T01:08:40;95079.03;;;3.29;100.00
6345;BME280;3205;42.666;23.264;2023-02-18T01:11:09;95081.44;;;3.15;100.00
6345;BME280;3205;42.666;23.264;2023-02-18T01:13:38;95078.31;;;3.18;100.00
6345;BME280;3205;42.666;23.264;2023-02-18T01:16:05;95089.53;;;3.19;100.00
6345;BME280;3205;42.666;23.264;2023-02-18T01:18:33;95075.41;;;3.20;100.00
6345;BME280;3205;42.666;23.264;2023-02-18T01:20:59;95070.47;;;3.62;100.00
6345;BME280;3205;42.666;23.264;2023-02-18T01:23:26;95066.31;;;3.56;100.00
6345;BME280;3205;42.666;23.264;2023-02-18T01:25:52;95063.13;;;3.64;100.00
6345;BME280;3205;42.666;23.264;2023-02-18T01:28:19;95070.41;;;3.71;100.00
6345;BME280;3205;42.666;23.264;2023-02-18T01:30:49;95067.44;;;3.83;100.00
6345;BME280;3205;42.666;23.264;2023-02-18T01:33:16;95078.72;;;3.73;100.00
6345;BME280;3205;42.666;23.264;2023-02-18T01:35:43;95069.03;;;3.79;100.00
6345;BME280;3205;42.666;23.264;2023-02-18T01:38:10;95069.03;;;3.79;100.00
6345;BME280;3205;42.666;23.264;2023-02-18T01:40:44;95072.50;;;3.69;100.00
6345;BME280;3205;42.666;23.264;2023-02-18T01:43:12;95065.09;;;3.48;100.00
6345;BME280;3205;42.666;23.264;2023-02-18T01:45:56;95078.63;;;3.50;100.00
6345;BME280;3205;42.666;23.264;2023-02-18T01:48:28;95083.69;;;3.37;100.00
6345;BME280;3205;42.666;23.264;2023-02-18T01:50:59;95088.41;;;3.35;100.00
6345;BME280;3205;42.666;23.264;2023-02-18T01:53:31;95077.53;;;3.18;100.00
6345;BME280;3205;42.666;23.264;2023-02-18T01:55:59;95095.09;;;3.07;100.00
6345;BME280;3205;42.666;23.264;2023-02-18T01:58:28;95105.56;;;2.97;100.00
6345;BME280;3205;42.666;23.264;2023-02-18T02:00:55;95097.78;;;2.92;100.00
6345;BME280;3205;42.666;23.264;2023-02-18T02:03:21;95103.28;;;2.81;100.00
6345;BME280;3205;42.666;23.264;2023-02-18T02:05:47;95103.84;;;2.73;100.00
6345;BME280;3205;42.666;23.264;2023-02-18T02:08:14;95106.75;;;2.67;100.00
6345;BME280;3205;42.666;23.264;2023-02-18T02:10:57;95093.16;;;2.65;100.00
6345;BME280;3205;42.666;23.264;2023-02-18T02:13:30;95096.56;;;2.60;100.00
6345;BME280;3205;42.666;23.264;2023-02-18T02:16:05;95090.00;;;2.73;100.00
6345;BME280;3205;42.666;23.264;2023-02-18T02:18:46;95080.13;;;2.55;100.00
6345;BME280;3205;42.666;23.264;2023-02-18T02:21:50;95074.66;;;2.61;100.00
6345;BME280;3205;42.666;23.264;2023-02-18T02:24:45;95063.91;;;2.73;100.00
6345;BME280;3205;42.666;23.264;2023-02-18T02:27:22;95075.66;;;2.65;100.00
6345;BME280;3205;42.666;23.264;2023-02-18T02:33:12;95066.34;;;2.49;100.00
6345;BME280;3205;42.666;23.264;2023-02-18T02:35:50;95068.19;;;2.39;100.00
6345;BME280;3205;42.666;23.264;2023-02-18T02:38:25;95072.63;;;2.33;100.00
6345;BME280;3205;42.666;23.264;2023-02-18T02:40:59;95067.13;;;2.50;100.00
6345;BME280;3205;42.666;23.264;2023-02-18T02:43:36;95064.72;;;2.58;100.00
6345;BME280;3205;42.666;23.264;2023-02-18T02:46:10;95052.25;;;2.55;100.00
6345;BME280;3205;42.666;23.264;2023-02-18T02:48:47;95055.09;;;2.59;100.00
6345;BME280;3205;42.666;23.264;2023-02-18T02:51:19;95050.41;;;2.51;100.00
6345;BME280;3205;42.666;23.264;2023-02-18T02:53:49;95051.50;;;2.40;100.00
6345;BME280;3205;42.666;23.264;2023-02-18T02:56:16;95053.59;;;2.28;100.00
6345;BME280;3205;42.666;23.264;2023-02-18T02:58:44;95060.91;;;2.31;100.00
6345;BME280;3205;42.666;23.264;2023-02-18T03:01:22;95063.53;;;2.31;100.00
6345;BME280;3205;42.666;23.264;2023-02-18T03:04:22;95072.38;;;2.40;100.00
6345;BME280;3205;42.666;23.264;2023-02-18T03:07:13;95080.19;;;2.45;100.00
6345;BME280;3205;42.666;23.264;2023-02-18T03:10:00;95072.63;;;2.33;100.00
6345;BME280;3205;42.666;23.264;2023-02-18T03:12:39;95092.75;;;2.23;100.00
6345;BME280;3205;42.666;23.264;2023-02-18T03:15:19;95089.66;;;2.06;100.00
6345;BME280;3205;42.666;23.264;2023-02-18T03:17:56;95077.16;;;1.98;100.00
6345;BME280;3205;42.666;23.264;2023-02-18T03:20:27;95070.38;;;1.97;100.00
6345;BME280;3205;42.666;23.264;2023-02-18T03:23:01;95083.13;;;2.09;100.00
6345;BME280;3205;42.666;23.264;2023-02-18T03:25:31;95084.94;;;2.18;100.00
6345;BME280;3205;42.666;23.264;2023-02-18T03:28:01;95084.97;;;1.98;100.00
6345;BME280;3205;42.666;23.264;2023-02-18T03:30:32;95093.28;;;2.10;100.00
6345;BME280;3205;42.666;23.264;2023-02-18T03:33:03;95090.69;;;2.00;100.00
6345;BME280;3205;42.666;23.264;2023-02-18T03:35:29;95081.81;;;2.01;100.00
6345;BME280;3205;42.666;23.264;2023-02-18T03:38:00;95106.56;;;2.04;100.00
6345;BME280;3205;42.666;23.264;2023-02-18T03:40:28;95117.78;;;2.09;100.00
6345;BME280;3205;42.666;23.264;2023-02-18T03:42:56;95113.09;;;2.16;100.00
6345;BME280;3205;42.666;23.264;2023-02-18T03:45:22;95112.06;;;2.02;100.00
6345;BME280;3205;42.666;23.264;2023-02-18T03:47:49;95104.75;;;2.14;100.00
6345;BME280;3205;42.666;23.264;2023-02-18T03:50:15;95120.91;;;2.26;100.00
6345;BME280;3205;42.666;23.264;2023-02-18T03:52:42;95127.94;;;2.11;100.00
6345;BME280;3205;42.666;23.264;2023-02-18T03:55:09;95115.47;;;2.08;100.00
6345;BME280;3205;42.666;23.264;2023-02-18T03:57:35;95126.91;;;2.07;100.00
6345;BME280;3205;42.666;23.264;2023-02-18T04:00:04;95121.47;;;2.13;100.00
6345;BME280;3205;42.666;23.264;2023-02-18T04:02:32;95118.84;;;2.13;100.00
6345;BME280;3205;42.666;23.264;2023-02-18T04:04:58;95109.44;;;2.07;100.00
6345;BME280;3205;42.666;23.264;2023-02-18T04:07:25;95108.91;;;2.25;100.00
6345;BME280;3205;42.666;23.264;2023-02-18T04:09:52;95107.06;;;2.35;100.00
6345;BME280;3205;42.666;23.264;2023-02-18T04:12:19;95097.94;;;2.28;100.00
6345;BME280;3205;42.666;23.264;2023-02-18T04:14:45;95097.97;;;2.23;100.00
6345;BME280;3205;42.666;23.264;2023-02-18T04:17:11;95097.22;;;2.08;100.00
6345;BME280;3205;42.666;23.264;2023-02-18T04:19:39;95094.06;;;2.06;100.00
6345;BME280;3205;42.666;23.264;2023-02-18T04:22:05;95093.28;;;2.00;100.00
6345;BME280;3205;42.666;23.264;2023-02-18T04:24:31;95088.34;;;1.99;100.00
6345;BME280;3205;42.666;23.264;2023-02-18T04:26:58;95077.16;;;1.93;100.00
6345;BME280;3205;42.666;23.264;2023-02-18T04:29:25;95066.47;;;1.95;100.00
6345;BME280;3205;42.666;23.264;2023-02-18T04:31:51;95069.81;;;2.00;100.00
6345;BME280;3205;42.666;23.264;2023-02-18T04:34:18;95066.44;;;2.00;100.00
6345;BME280;3205;42.666;23.264;2023-02-18T04:36:44;95064.09;;;1.88;100.00
6345;BME280;3205;42.666;23.264;2023-02-18T04:39:10;95064.13;;;1.93;100.00
6345;BME280;3205;42.666;23.264;2023-02-18T04:41:37;95072.69;;;2.09;100.00
6345;BME280;3205;42.666;23.264;2023-02-18T04:44:03;95081.50;;;2.32;100.00
6345;BME280;3205;42.666;23.264;2023-02-18T04:46:30;95073.41;;;2.44;100.00
6345;BME280;3205;42.666;23.264;2023-02-18T04:48:56;95085.66;;;2.48;100.00
6345;BME280;3205;42.666;23.264;2023-02-18T04:51:22;95079.13;;;2.41;100.00
6345;BME280;3205;42.666;23.264;2023-02-18T04:53:48;95094.78;;;2.46;100.00
6345;BME280;3205;42.666;23.264;2023-02-18T04:56:15;95091.41;;;2.50;100.00
6345;BME280;3205;42.666;23.264;2023-02-18T04:58:41;95092.13;;;2.66;100.00
6345;BME280;3205;42.666;23.264;2023-02-18T05:01:07;95092.91;;;2.66;100.00
6345;BME280;3205;42.666;23.264;2023-02-18T05:03:34;95100.94;;;2.75;100.00
6345;BME280;3205;42.666;23.264;2023-02-18T05:06:00;95116.88;;;2.73;100.00
6345;BME280;3205;42.666;23.264;2023-02-18T05:08:26;95115.88;;;2.69;100.00
6345;BME280;3205;42.666;23.264;2023-02-18T05:10:52;95126.56;;;2.73;100.00
6345;BME280;3205;42.666;23.264;2023-02-18T05:13:19;95126.56;;;2.68;100.00
6345;BME280;3205;42.666;23.264;2023-02-18T05:15:45;95137.53;;;2.65;100.00
6345;BME280;3205;42.666;23.264;2023-02-18T05:18:12;95130.22;;;2.62;100.00
6345;BME280;3205;42.666;23.264;2023-02-18T05:20:39;95103.63;;;2.55;100.00
6345;BME280;3205;42.666;23.264;2023-02-18T05:23:07;95101.25;;;2.68;100.00
6345;BME280;3205;42.666;23.264;2023-02-18T05:25:33;95096.31;;;2.67;100.00
6345;BME280;3205;42.666;23.264;2023-02-18T05:28:00;95091.84;;;2.67;100.00
6345;BME280;3205;42.666;23.264;2023-02-18T05:30:26;95092.66;;;2.63;100.00
6345;BME280;3205;42.666;23.264;2023-02-18T05:32:52;95095.25;;;2.73;100.00
6345;BME280;3205;42.666;23.264;2023-02-18T05:35:18;95085.56;;;2.73;100.00
6345;BME280;3205;42.666;23.264;2023-02-18T05:37:45;95084.53;;;2.69;100.00
6345;BME280;3205;42.666;23.264;2023-02-18T05:40:12;95087.66;;;2.76;100.00
6345;BME280;3205;42.666;23.264;2023-02-18T05:42:39;95085.50;;;2.88;100.00
6345;BME280;3205;42.666;23.264;2023-02-18T05:45:05;95086.78;;;2.95;100.00
6345;BME280;3205;42.666;23.264;2023-02-18T05:47:31;95100.88;;;2.99;100.00
6345;BME280;3205;42.666;23.264;2023-02-18T05:49:57;95096.94;;;3.02;100.00
6345;BME280;3205;42.666;23.264;2023-02-18T05:52:24;95092.97;;;3.09;100.00
6345;BME280;3205;42.666;23.264;2023-02-18T05:54:50;95094.44;;;3.30;100.00
6345;BME280;3205;42.666;23.264;2023-02-18T05:57:17;95100.09;;;3.47;100.00
6345;BME280;3205;42.666;23.264;2023-02-18T05:59:43;95111.06;;;3.49;100.00
6345;BME280;3205;42.666;23.264;2023-02-18T06:02:09;95117.53;;;3.57;100.00
6345;BME280;3205;42.666;23.264;2023-02-18T06:04:35;95122.41;;;3.73;100.00
6345;BME280;3205;42.666;23.264;2023-02-18T06:07:02;95126.50;;;3.84;100.00
6345;BME280;3205;42.666;23.264;2023-02-18T06:09:28;95120.88;;;4.00;100.00
6345;BME280;3205;42.666;23.264;2023-02-18T06:11:55;95121.41;;;4.31;100.00
6345;BME280;3205;42.666;23.264;2023-02-18T06:14:21;95121.56;;;4.44;100.00
6345;BME280;3205;42.666;23.264;2023-02-18T06:16:47;95117.16;;;4.68;100.00
6345;BME280;3205;42.666;23.264;2023-02-18T06:19:13;95116.41;;;4.86;100.00
6345;BME280;3205;42.666;23.264;2023-02-18T06:21:39;95110.53;;;5.17;100.00
6345;BME280;3205;42.666;23.264;2023-02-18T06:24:06;95109.28;;;5.33;100.00
6345;BME280;3205;42.666;23.264;2023-02-18T06:26:32;95108.38;;;5.42;100.00
6345;BME280;3205;42.666;23.264;2023-02-18T06:29:00;95107.66;;;5.74;100.00
6345;BME280;3205;42.666;23.264;2023-02-18T06:31:27;95107.91;;;5.77;100.00
6345;BME280;3205;42.666;23.264;2023-02-18T06:33:53;95112.38;;;5.95;100.00
6345;BME280;3205;42.666;23.264;2023-02-18T06:36:19;95094.84;;;6.09;100.00
6345;BME280;3205;42.666;23.264;2023-02-18T06:38:46;95109.78;;;6.08;100.00
6345;BME280;3205;42.666;23.264;2023-02-18T06:41:13;95103.22;;;6.24;100.00
6345;BME280;3205;42.666;23.264;2023-02-18T06:43:39;95111.44;;;6.36;100.00
6345;BME280;3205;42.666;23.264;2023-02-18T06:46:06;95112.97;;;6.24;100.00
6345;BME280;3205;42.666;23.264;2023-02-18T06:48:33;95123.19;;;6.07;100.00
6345;BME280;3205;42.666;23.264;2023-02-18T06:51:00;95104.47;;;6.13;100.00
6345;BME280;3205;42.666;23.264;2023-02-18T06:53:26;95096.63;;;6.27;100.00
6345;BME280;3205;42.666;23.264;2023-02-18T06:55:52;95107.44;;;6.39;100.00
6345;BME280;3205;42.666;23.264;2023-02-18T06:58:19;95105.16;;;6.51;100.00
6345;BME280;3205;42.666;23.264;2023-02-18T07:00:45;95104.59;;;6.80;100.00
6345;BME280;3205;42.666;23.264;2023-02-18T07:03:14;95090.78;;;7.15;100.00
6345;BME280;3205;42.666;23.264;2023-02-18T07:05:41;95101.09;;;7.12;96.92
6345;BME280;3205;42.666;23.264;2023-02-18T07:08:07;95108.78;;;7.08;98.82
6345;BME280;3205;42.666;23.264;2023-02-18T07:10:34;95099.31;;;7.34;96.80
6345;BME280;3205;42.666;23.264;2023-02-18T07:13:00;95099.63;;;7.33;91.40
6345;BME280;3205;42.666;23.264;2023-02-18T07:15:27;95080.41;;;7.45;89.03
6345;BME280;3205;42.666;23.264;2023-02-18T07:17:53;95080.47;;;7.54;90.96
6345;BME280;3205;42.666;23.264;2023-02-18T07:20:20;95085.06;;;7.84;92.09
6345;BME280;3205;42.666;23.264;2023-02-18T07:22:47;95070.97;;;7.80;90.56
6345;BME280;3205;42.666;23.264;2023-02-18T07:25:14;95072.56;;;8.11;91.00
6345;BME280;3205;42.666;23.264;2023-02-18T07:27:40;95079.19;;;8.22;86.49
6345;BME280;3205;42.666;23.264;2023-02-18T07:30:07;95070.63;;;8.38;85.76
6345;BME280;3205;42.666;23.264;2023-02-18T07:32:34;95068.00;;;8.47;82.27
6345;BME280;3205;42.666;23.264;2023-02-18T07:35:01;95079.19;;;8.44;80.08
6345;BME280;3205;42.666;23.264;2023-02-18T07:37:28;95087.72;;;8.49;82.42
6345;BME280;3205;42.666;23.264;2023-02-18T07:39:55;95102.03;;;8.95;81.46
6345;BME280;3205;42.666;23.264;2023-02-18T07:42:21;95110.31;;;9.11;74.61
6345;BME280;3205;42.666;23.264;2023-02-18T07:44:48;95124.34;;;9.28;72.54
6345;BME280;3205;42.666;23.264;2023-02-18T07:47:16;95114.78;;;9.49;72.17
6345;BME280;3205;42.666;23.264;2023-02-18T07:49:44;95117.94;;;9.85;70.81
6345;BME280;3205;42.666;23.264;2023-02-18T07:52:10;95133.22;;;10.05;67.04
6345;BME280;3205;42.666;23.264;2023-02-18T07:54:37;95136.28;;;9.81;65.88
6345;BME280;3205;42.666;23.264;2023-02-18T07:57:03;95131.16;;;9.76;65.67
6345;BME280;3205;42.666;23.264;2023-02-18T07:59:30;95133.66;;;10.49;64.11
6345;BME280;3205;42.666;23.264;2023-02-18T08:01:56;95117.41;;;10.84;60.46
6345;BME280;3205;42.666;23.264;2023-02-18T08:04:22;95113.44;;;10.28;60.02
6345;BME280;3205;42.666;23.264;2023-02-18T08:06:49;95106.78;;;10.38;61.91
6345;BME280;3205;42.666;23.264;2023-02-18T08:09:17;95106.44;;;9.81;62.15
6345;BME280;3205;42.666;23.264;2023-02-18T08:11:44;95124.97;;;9.25;64.03
6345;BME280;3205;42.666;23.264;2023-02-18T08:14:10;95111.41;;;9.10;65.68
6345;BME280;3205;42.666;23.264;2023-02-18T08:16:36;95117.31;;;9.79;64.56
6345;BME280;3205;42.666;23.264;2023-02-18T08:19:03;95115.00;;;10.45;61.52
6345;BME280;3205;42.666;23.264;2023-02-18T08:21:29;95102.34;;;11.22;58.92
6345;BME280;3205;42.666;23.264;2023-02-18T08:23:58;95103.28;;;10.72;59.45
6345;BME280;3205;42.666;23.264;2023-02-18T08:26:24;95091.59;;;10.73;58.64
6345;BME280;3205;42.666;23.264;2023-02-18T08:28:51;95092.97;;;10.87;59.85
6345;BME280;3205;42.666;23.264;2023-02-18T08:31:19;95082.84;;;11.26;57.37
6345;BME280;3205;42.666;23.264;2023-02-18T08:33:46;95079.44;;;10.89;57.36
6345;BME280;3205;42.666;23.264;2023-02-18T08:36:12;95082.25;;;10.13;58.88
6345;BME280;3205;42.666;23.264;2023-02-18T08:38:38;95078.31;;;9.68;62.56
6345;BME280;3205;42.666;23.264;2023-02-18T08:41:06;95080.00;;;9.39;64.06
6345;BME280;3205;42.666;23.264;2023-02-18T08:43:33;95078.25;;;9.26;65.08
6345;BME280;3205;42.666;23.264;2023-02-18T08:46:00;95066.22;;;9.75;63.72
6345;BME280;3205;42.666;23.264;2023-02-18T08:48:28;95060.94;;;10.01;62.44
6345;BME280;3205;42.666;23.264;2023-02-18T08:50:54;95073.50;;;10.54;63.15
6345;BME280;3205;42.666;23.264;2023-02-18T08:53:21;95076.50;;;11.19;60.33
6345;BME280;3205;42.666;23.264;2023-02-18T08:55:47;95084.38;;;12.05;57.97
6345;BME280;3205;42.666;23.264;2023-02-18T08:58:15;95094.78;;;12.63;55.07
6345;BME280;3205;42.666;23.264;2023-02-18T09:00:42;95104.38;;;11.74;52.58
6345;BME280;3205;42.666;23.264;2023-02-18T09:03:11;95111.50;;;11.82;52.58
6345;BME280;3205;42.666;23.264;2023-02-18T09:05:38;95090.44;;;12.58;52.26
6345;BME280;3205;42.666;23.264;2023-02-18T09:08:04;95103.38;;;12.92;52.82
6345;BME280;3205;42.666;23.264;2023-02-18T09:10:31;95104.84;;;13.14;53.61
6345;BME280;3205;42.666;23.264;2023-02-18T09:12:57;95099.97;;;13.39;51.25
6345;BME280;3205;42.666;23.264;2023-02-18T09:15:23;95107.41;;;13.34;51.60
6345;BME280;3205;42.666;23.264;2023-02-18T09:17:49;95100.19;;;13.70;50.77
6345;BME280;3205;42.666;23.264;2023-02-18T09:20:16;95100.56;;;14.08;49.51
6345;BME280;3205;42.666;23.264;2023-02-18T09:22:44;95080.63;;;14.26;47.48
6345;BME280;3205;42.666;23.264;2023-02-18T09:25:10;95103.44;;;14.97;46.64
6345;BME280;3205;42.666;23.264;2023-02-18T09:27:36;95084.16;;;15.96;43.26
6345;BME280;3205;42.666;23.264;2023-02-18T09:30:04;95083.78;;;16.50;41.84
6345;BME280;3205;42.666;23.264;2023-02-18T09:32:30;95074.38;;;15.84;42.51
6345;BME280;3205;42.666;23.264;2023-02-18T09:34:58;95071.53;;;15.77;42.40
6345;BME280;3205;42.666;23.264;2023-02-18T09:37:25;95069.44;;;15.52;42.57
6345;BME280;3205;42.666;23.264;2023-02-18T09:39:51;95060.56;;;15.98;42.09
6345;BME280;3205;42.666;23.264;2023-02-18T09:42:19;95068.78;;;14.66;43.57
6345;BME280;3205;42.666;23.264;2023-02-18T09:44:53;95061.09;;;14.92;43.63
6345;BME280;3205;42.666;23.264;2023-02-18T09:47:24;95056.75;;;16.52;41.38
6345;BME280;3205;42.666;23.264;2023-02-18T09:49:57;95057.47;;;17.35;39.77
6345;BME280;3205;42.666;23.264;2023-02-18T09:52:28;95054.53;;;18.54;38.18
6345;BME280;3205;42.666;23.264;2023-02-18T09:54:55;95064.22;;;18.98;37.15
6345;BME280;3205;42.666;23.264;2023-02-18T09:57:24;95063.94;;;20.00;36.59
6345;BME280;3205;42.666;23.264;2023-02-18T09:59:56;95060.63;;;19.66;36.64
6345;BME280;3205;42.666;23.264;2023-02-18T10:02:24;95043.47;;;18.55;36.77
6345;BME280;3205;42.666;23.264;2023-02-18T10:04:51;95050.06;;;18.97;37.91
6345;BME280;3205;42.666;23.264;2023-02-18T10:07:22;95039.78;;;18.66;36.62
6345;BME280;3205;42.666;23.264;2023-02-18T10:09:51;95041.75;;;18.37;37.65
6345;BME280;3205;42.666;23.264;2023-02-18T10:12:20;95036.97;;;18.23;36.92
6345;BME280;3205;42.666;23.264;2023-02-18T10:14:49;95017.63;;;18.07;37.26
6345;BME280;3205;42.666;23.264;2023-02-18T10:17:16;95031.94;;;16.51;38.92
6345;BME280;3205;42.666;23.264;2023-02-18T10:19:47;95042.03;;;15.36;41.51
6345;BME280;3205;42.666;23.264;2023-02-18T10:22:15;95038.63;;;15.05;42.50
6345;BME280;3205;42.666;23.264;2023-02-18T10:24:45;95040.38;;;14.70;43.25
6345;BME280;3205;42.666;23.264;2023-02-18T10:27:19;95032.16;;;15.06;43.73
6345;BME280;3205;42.666;23.264;2023-02-18T10:29:50;95030.22;;;15.87;43.36
6345;BME280;3205;42.666;23.264;2023-02-18T10:32:21;95028.59;;;15.63;42.05
6345;BME280;3205;42.666;23.264;2023-02-18T10:34:52;95027.91;;;15.51;42.49
6345;BME280;3205;42.666;23.264;2023-02-18T10:37:37;95033.16;;;15.63;42.17
6345;BME280;3205;42.666;23.264;2023-02-18T10:40:10;95028.53;;;15.45;42.45
6345;BME280;3205;42.666;23.264;2023-02-18T10:42:48;95022.19;;;15.49;42.17
6345;BME280;3205;42.666;23.264;2023-02-18T10:45:25;95008.31;;;15.25;42.20
6345;BME280;3205;42.666;23.264;2023-02-18T10:48:05;95003.47;;;15.30;41.94
6345;BME280;3205;42.666;23.264;2023-02-18T10:50:37;94992.16;;;16.05;41.73
6345;BME280;3205;42.666;23.264;2023-02-18T10:53:11;94982.63;;;16.64;39.09
6345;BME280;3205;42.666;23.264;2023-02-18T10:55:39;94983.47;;;17.16;39.14
6345;BME280;3205;42.666;23.264;2023-02-18T10:58:25;94979.25;;;17.38;37.70
6345;BME280;3205;42.666;23.264;2023-02-18T11:00:52;94966.34;;;17.69;38.27
6345;BME280;3205;42.666;23.264;2023-02-18T11:03:22;94975.91;;;17.74;37.70
6345;BME280;3205;42.666;23.264;2023-02-18T11:05:51;94971.81;;;17.80;37.41
6345;BME280;3205;42.666;23.264;2023-02-18T11:08:21;94965.16;;;17.41;37.74
6345;BME280;3205;42.666;23.264;2023-02-18T11:10:49;94961.84;;;17.25;36.34
6345;BME280;3205;42.666;23.264;2023-02-18T11:13:24;94964.81;;;17.42;35.41
6345;BME280;3205;42.666;23.264;2023-02-18T11:15:55;94957.94;;;17.71;34.77
6345;BME280;3205;42.666;23.264;2023-02-18T11:18:36;94952.41;;;17.86;34.81
6345;BME280;3205;42.666;23.264;2023-02-18T11:21:05;94945.84;;;17.80;34.39
6345;BME280;3205;42.666;23.264;2023-02-18T11:23:46;94952.47;;;17.93;35.05
6345;BME280;3205;42.666;23.264;2023-02-18T11:26:14;94942.81;;;17.85;34.50
6345;BME280;3205;42.666;23.264;2023-02-18T11:28:44;94932.03;;;17.78;34.68
6345;BME280;3205;42.666;23.264;2023-02-18T11:31:19;94928.00;;;17.91;34.74
6345;BME280;3205;42.666;23.264;2023-02-18T11:33:49;94919.63;;;17.92;34.87
6345;BME280;3205;42.666;23.264;2023-02-18T11:36:21;94910.34;;;18.16;34.28
6345;BME280;3205;42.666;23.264;2023-02-18T11:38:51;94914.75;;;18.34;34.57
6345;BME280;3205;42.666;23.264;2023-02-18T11:41:20;94888.13;;;18.52;34.28
6345;BME280;3205;42.666;23.264;2023-02-18T11:43:50;94896.16;;;18.52;34.93
6345;BME280;3205;42.666;23.264;2023-02-18T11:46:19;94892.00;;;18.54;35.17
6345;BME280;3205;42.666;23.264;2023-02-18T11:48:47;94890.13;;;18.58;34.99
6345;BME280;3205;42.666;23.264;2023-02-18T11:51:16;94888.28;;;18.69;34.46
6345;BME280;3205;42.666;23.264;2023-02-18T11:53:54;94886.28;;;18.59;34.98
6345;BME280;3205;42.666;23.264;2023-02-18T11:56:24;94877.72;;;18.43;34.77
6345;BME280;3205;42.666;23.264;2023-02-18T11:58:51;94881.28;;;18.54;34.78
6345;BME280;3205;42.666;23.264;2023-02-18T12:01:27;94886.81;;;18.75;34.12
6345;BME280;3205;42.666;23.264;2023-02-18T12:03:58;94874.97;;;18.79;34.35
6345;BME280;3205;42.666;23.264;2023-02-18T12:06:29;94870.22;;;18.59;34.39
6345;BME280;3205;42.666;23.264;2023-02-18T12:09:02;94876.09;;;18.71;34.08
6345;BME280;3205;42.666;23.264;2023-02-18T12:11:33;94861.28;;;18.88;33.80
6345;BME280;3205;42.666;23.264;2023-02-18T12:14:09;94860.03;;;18.78;34.71
6345;BME280;3205;42.666;23.264;2023-02-18T12:16:48;94854.69;;;18.82;34.61
6345;BME280;3205;42.666;23.264;2023-02-18T12:19:40;94861.56;;;18.76;34.35
6345;BME280;3205;42.666;23.264;2023-02-18T12:22:15;94858.03;;;18.65;34.28
6345;BME280;3205;42.666;23.264;2023-02-18T12:24:57;94858.50;;;18.74;34.06
6345;BME280;3205;42.666;23.264;2023-02-18T12:27:33;94872.22;;;18.72;34.30
6345;BME280;3205;42.666;23.264;2023-02-18T12:30:28;94858.88;;;18.76;34.46
6345;BME280;3205;42.666;23.264;2023-02-18T12:33:06;94852.38;;;18.77;34.54
6345;BME280;3205;42.666;23.264;2023-02-18T12:35:48;94851.63;;;18.76;34.51
6345;BME280;3205;42.666;23.264;2023-02-18T12:38:40;94850.97;;;18.43;34.69
6345;BME280;3205;42.666;23.264;2023-02-18T12:41:40;94839.94;;;18.12;34.75
6345;BME280;3205;42.666;23.264;2023-02-18T12:44:20;94839.78;;;17.98;35.24
6345;BME280;3205;42.666;23.264;2023-02-18T12:47:06;94826.91;;;17.71;35.39
6345;BME280;3205;42.666;23.264;2023-02-18T12:52:33;94826.44;;;17.62;36.26
6345;BME280;3205;42.666;23.264;2023-02-18T12:55:21;94823.25;;;17.49;36.48
6345;BME280;3205;42.666;23.264;2023-02-18T12:57:55;94820.13;;;17.44;36.43
6345;BME280;3205;42.666;23.264;2023-02-18T13:01:03;94830.22;;;17.28;36.61
6345;BME280;3205;42.666;23.264;2023-02-18T13:06:45;94817.81;;;17.42;36.96
6345;BME280;3205;42.666;23.264;2023-02-18T13:09:24;94826.75;;;17.57;36.75
6345;BME280;3205;42.666;23.264;2023-02-18T13:11:58;94831.06;;;17.65;36.40
6345;BME280;3205;42.666;23.264;2023-02-18T13:14:32;94821.06;;;17.62;36.88
6345;BME280;3205;42.666;23.264;2023-02-18T13:17:00;94829.13;;;17.65;36.46
6345;BME280;3205;42.666;23.264;2023-02-18T13:19:31;94833.47;;;17.77;36.56
6345;BME280;3205;42.666;23.264;2023-02-18T13:22:02;94829.03;;;17.91;36.97
6345;BME280;3205;42.666;23.264;2023-02-18T13:24:32;94826.69;;;17.86;36.98
6345;BME280;3205;42.666;23.264;2023-02-18T13:27:09;94831.59;;;17.81;36.53
6345;BME280;3205;42.666;23.264;2023-02-18T13:29:45;94819.00;;;17.81;36.96
6345;BME280;3205;42.666;23.264;2023-02-18T13:32:19;94821.22;;;17.76;37.09
6345;BME280;3205;42.666;23.264;2023-02-18T13:34:54;94820.91;;;17.81;36.88